sensor_id;sensor_type;location;lat;lon;timestamp;pressure;altitude;pressure_sealevel;temperature
77355;BMP280;66422;51.202;19.936;2023-07-20T00:13:24;98606.56;;;14.29
77355;BMP280;66422;51.202;19.936;2023-07-20T00:28:44;98587.48;;;14.68
77355;BMP280;66422;51.202;19.936;2023-07-20T00:44:04;98574.70;;;15.13
77355;BMP280;66422;51.202;19.936;2023-07-20T00:59:25;98564.27;;;15.25
77355;BMP280;66422;51.202;19.936;2023-07-20T01:14:45;98585.80;;;15.04
77355;BMP280;66422;51.202;19.936;2023-07-20T01:45:53;98624.52;;;16.20
77355;BMP280;66422;51.202;19.936;2023-07-20T02:01:13;98611.25;;;16.62
77355;BMP280;66422;51.202;19.936;2023-07-20T02:16:33;98625.58;;;17.01
77355;BMP280;66422;51.202;19.936;2023-07-20T02:31:53;98671.27;;;16.43
77355;BMP280;66422;51.202;19.936;2023-07-20T02:47:12;98709.34;;;16.65
77355;BMP280;66422;51.202;19.936;2023-07-20T03:02:32;98752.59;;;17.17
77355;BMP280;66422;51.202;19.936;2023-07-20T03:17:52;98773.36;;;16.85
77355;BMP280;66422;51.202;19.936;2023-07-20T03:33:12;98781.79;;;16.62
77355;BMP280;66422;51.202;19.936;2023-07-20T03:48:32;98789.39;;;16.18
77355;BMP280;66422;51.202;19.936;2023-07-20T04:03:51;98796.81;;;15.86
77355;BMP280;66422;51.202;19.936;2023-07-20T04:19:11;98769.48;;;15.87
77355;BMP280;66422;51.202;19.936;2023-07-20T04:34:31;98789.66;;;16.01
77355;BMP280;66422;51.202;19.936;2023-07-20T04:49:51;98782.25;;;16.45
77355;BMP280;66422;51.202;19.936;2023-07-20T05:05:11;98742.37;;;16.66
77355;BMP280;66422;51.202;19.936;2023-07-20T05:20:31;98748.02;;;17.17
77355;BMP280;66422;51.202;19.936;2023-07-20T05:35:53;98786.61;;;17.25
77355;BMP280;66422;51.202;19.936;2023-07-20T05:51:13;98808.61;;;17.63
77355;BMP280;66422;51.202;19.936;2023-07-20T06:06:33;98811.54;;;18.11
77355;BMP280;66422;51.202;19.936;2023-07-20T06:21:53;98839.20;;;21.41
77355;BMP280;66422;51.202;19.936;2023-07-20T06:37:13;98854.04;;;24.19
77355;BMP280;66422;51.202;19.936;2023-07-20T06:52:33;98813.45;;;22.77
77355;BMP280;66422;51.202;19.936;2023-07-20T07:07:53;98800.66;;;21.84
77355;BMP280;66422;51.202;19.936;2023-07-20T07:23:13;98800.90;;;21.44
77355;BMP280;66422;51.202;19.936;2023-07-20T07:38:32;98825.98;;;21.51
77355;BMP280;66422;51.202;19.936;2023-07-20T07:53:52;98818.77;;;22.26
77355;BMP280;66422;51.202;19.936;2023-07-20T08:09:12;98831.36;;;21.95
77355;BMP280;66422;51.202;19.936;2023-07-20T08:24:32;98826.14;;;21.99
77355;BMP280;66422;51.202;19.936;2023-07-20T08:39:53;98845.64;;;21.21
77355;BMP280;66422;51.202;19.936;2023-07-20T08:55:12;98846.19;;;21.33
77355;BMP280;66422;51.202;19.936;2023-07-20T09:10:32;98872.23;;;20.77
77355;BMP280;66422;51.202;19.936;2023-07-20T09:25:52;98879.94;;;21.12
77355;BMP280;66422;51.202;19.936;2023-07-20T09:41:15;98893.94;;;22.84
77355;BMP280;66422;51.202;19.936;2023-07-20T09:56:35;98895.44;;;22.94
77355;BMP280;66422;51.202;19.936;2023-07-20T10:11:56;98887.47;;;22.96
77355;BMP280;66422;51.202;19.936;2023-07-20T10:27:18;98889.71;;;24.25
77355;BMP280;66422;51.202;19.936;2023-07-20T10:42:38;98875.95;;;23.98
77355;BMP280;66422;51.202;19.936;2023-07-20T10:58:09;98887.73;;;22.47
77355;BMP280;66422;51.202;19.936;2023-07-20T11:13:29;98888.82;;;23.80
77355;BMP280;66422;51.202;19.936;2023-07-20T11:28:51;98874.13;;;24.94
77355;BMP280;66422;51.202;19.936;2023-07-20T11:44:11;98856.84;;;24.90
77355;BMP280;66422;51.202;19.936;2023-07-20T11:59:34;98844.14;;;26.02
77355;BMP280;66422;51.202;19.936;2023-07-20T12:14:54;98830.87;;;24.57
77355;BMP280;66422;51.202;19.936;2023-07-20T12:30:14;98804.70;;;25.92
77355;BMP280;66422;51.202;19.936;2023-07-20T12:45:34;98813.25;;;25.64
77355;BMP280;66422;51.202;19.936;2023-07-20T13:00:54;98812.45;;;25.90
77355;BMP280;66422;51.202;19.936;2023-07-20T13:16:13;98826.17;;;24.39
77355;BMP280;66422;51.202;19.936;2023-07-20T13:31:34;98818.13;;;24.97
77355;BMP280;66422;51.202;19.936;2023-07-20T13:46:54;98827.52;;;20.98
77355;BMP280;66422;51.202;19.936;2023-07-20T14:02:14;98890.20;;;20.96
77355;BMP280;66422;51.202;19.936;2023-07-20T14:17:34;98882.20;;;22.17
77355;BMP280;66422;51.202;19.936;2023-07-20T14:32:54;98936.81;;;20.39
77355;BMP280;66422;51.202;19.936;2023-07-20T14:48:14;98926.55;;;18.48
77355;BMP280;66422;51.202;19.936;2023-07-20T15:03:34;98935.25;;;18.60
77355;BMP280;66422;51.202;19.936;2023-07-20T15:18:54;98913.44;;;19.12
77355;BMP280;66422;51.202;19.936;2023-07-20T15:34:13;98911.84;;;19.26
77355;BMP280;66422;51.202;19.936;2023-07-20T15:49:36;98893.65;;;20.14
77355;BMP280;66422;51.202;19.936;2023-07-20T16:04:56;98906.11;;;20.76
77355;BMP280;66422;51.202;19.936;2023-07-20T16:20:16;98903.63;;;20.73
77355;BMP280;66422;51.202;19.936;2023-07-20T16:35:37;98908.23;;;20.70
77355;BMP280;66422;51.202;19.936;2023-07-20T16:50:58;98913.09;;;21.22
77355;BMP280;66422;51.202;19.936;2023-07-20T17:06:18;98913.40;;;21.71
77355;BMP280;66422;51.202;19.936;2023-07-20T17:21:38;98913.70;;;23.02
77355;BMP280;66422;51.202;19.936;2023-07-20T17:36:58;98942.06;;;20.85
77355;BMP280;66422;51.202;19.936;2023-07-20T17:52:17;98946.11;;;20.35
77355;BMP280;66422;51.202;19.936;2023-07-20T18:07:37;98949.80;;;20.27
77355;BMP280;66422;51.202;19.936;2023-07-20T18:23:00;98936.02;;;20.41
77355;BMP280;66422;51.202;19.936;2023-07-20T18:38:22;98930.45;;;19.93
77355;BMP280;66422;51.202;19.936;2023-07-20T18:53:42;98961.90;;;19.41
77355;BMP280;66422;51.202;19.936;2023-07-20T19:09:03;99002.80;;;19.00
77355;BMP280;66422;51.202;19.936;2023-07-20T19:24:24;99025.92;;;18.14
77355;BMP280;66422;51.202;19.936;2023-07-20T19:39:44;99047.52;;;18.13
77355;BMP280;66422;51.202;19.936;2023-07-20T19:55:05;99045.41;;;18.17
77355;BMP280;66422;51.202;19.936;2023-07-20T20:10:25;99062.98;;;17.56
77355;BMP280;66422;51.202;19.936;2023-07-20T20:25:46;99064.36;;;17.55
77355;BMP280;66422;51.202;19.936;2023-07-20T20:41:06;99057.40;;;17.13
77355;BMP280;66422;51.202;19.936;2023-07-20T20:56:26;99067.52;;;17.01
77355;BMP280;66422;51.202;19.936;2023-07-20T21:11:46;99079.70;;;16.88
77355;BMP280;66422;51.202;19.936;2023-07-20T21:27:06;99077.27;;;16.70
77355;BMP280;66422;51.202;19.936;2023-07-20T21:42:26;99066.36;;;15.90
77355;BMP280;66422;51.202;19.936;2023-07-20T21:57:46;99082.56;;;15.90
77355;BMP280;66422;51.202;19.936;2023-07-20T22:13:06;99091.31;;;15.60
77355;BMP280;66422;51.202;19.936;2023-07-20T22:28:26;99098.65;;;16.20
77355;BMP280;66422;51.202;19.936;2023-07-20T22:43:46;99091.57;;;16.26
77355;BMP280;66422;51.202;19.936;2023-07-20T22:59:06;99100.48;;;16.23
77355;BMP280;66422;51.202;19.936;2023-07-20T23:14:28;99104.02;;;16.44
77355;BMP280;66422;51.202;19.936;2023-07-20T23:29:48;99096.58;;;16.39
77355;BMP280;66422;51.202;19.936;2023-07-20T23:45:08;99074.45;;;16.50
